sensor_id;sensor_type;location;lat;lon;timestamp;pressure;altitude;pressure_sealevel;temperature;humidity
11487;BME280;10510;47.942;9.442;2023-02-18T00:00:44;95628.16;;;8.56;100.00
11487;BME280;10510;47.942;9.442;2023-02-18T00:02:45;95627.16;;;8.57;100.00
11487;BME280;10510;47.942;9.442;2023-02-18T00:04:45;95629.78;;;8.57;100.00
11487;BME280;10510;47.942;9.442;2023-02-18T00:06:45;95625.38;;;8.58;100.00
11487;BME280;10510;47.942;9.442;2023-02-18T00:08:46;95614.81;;;8.59;100.00
11487;BME280;10510;47.942;9.442;2023-02-18T00:10:47;95613.84;;;8.60;100.00
11487;BME280;10510;47.942;9.442;2023-02-18T00:12:47;95614.00;;;8.59;100.00
11487;BME280;10510;47.942;9.442;2023-02-18T00:14:47;95627.03;;;8.59;100.00
11487;BME280;10510;47.942;9.442;2023-02-18T00:16:48;95618.38;;;8.58;100.00
11487;BME280;10510;47.942;9.442;2023-02-18T00:18:48;95615.75;;;8.58;100.00
11487;BME280;10510;47.942;9.442;2023-02-18T00:20:48;95616.75;;;8.57;100.00
11487;BME280;10510;47.942;9.442;2023-02-18T00:22:49;95612.50;;;8.56;100.00
11487;BME280;10510;47.942;9.442;2023-02-18T00:24:49;95609.22;;;8.54;100.00
11487;BME280;10510;47.942;9.442;2023-02-18T00:26:51;95607.59;;;8.53;100.00
11487;BME280;10510;47.942;9.442;2023-02-18T00:28:51;95618.16;;;8.52;100.00
11487;BME280;10510;47.942;9.442;2023-02-18T00:30:53;95612.25;;;8.50;100.00
11487;BME280;10510;47.942;9.442;2023-02-18T00:32:53;95612.25;;;8.50;100.00
11487;BME280;10510;47.942;9.442;2023-02-18T00:34:54;95610.50;;;8.50;100.00
11487;BME280;10510;47.942;9.442;2023-02-18T00:36:54;95610.63;;;8.49;100.00
11487;BME280;10510;47.942;9.442;2023-02-18T00:38:57;95605.28;;;8.50;100.00
11487;BME280;10510;47.942;9.442;2023-02-18T00:40:58;95611.31;;;8.51;100.00
11487;BME280;10510;47.942;9.442;2023-02-18T00:42:58;95608.69;;;8.51;100.00
11487;BME280;10510;47.942;9.442;2023-02-18T00:44:58;95612.13;;;8.51;100.00
11487;BME280;10510;47.942;9.442;2023-02-18T00:46:59;95610.50;;;8.50;100.00
11487;BME280;10510;47.942;9.442;2023-02-18T00:48:59;95605.41;;;8.49;100.00
11487;BME280;10510;47.942;9.442;2023-02-18T00:51:01;95614.03;;;8.49;100.00
11487;BME280;10510;47.942;9.442;2023-02-18T00:53:01;95602.00;;;8.48;100.00
11487;BME280;10510;47.942;9.442;2023-02-18T00:55:01;95597.75;;;8.47;100.00
11487;BME280;10510;47.942;9.442;2023-02-18T00:57:02;95600.38;;;8.47;100.00
11487;BME280;10510;47.942;9.442;2023-02-18T00:59:02;95594.31;;;8.47;100.00
11487;BME280;10510;47.942;9.442;2023-02-18T01:01:04;95586.50;;;8.47;100.00
11487;BME280;10510;47.942;9.442;2023-02-18T01:03:05;95590.88;;;8.46;100.00
11487;BME280;10510;47.942;9.442;2023-02-18T01:05:09;95597.06;;;8.45;100.00
11487;BME280;10510;47.942;9.442;2023-02-18T01:07:09;95612.03;;;8.43;100.00
11487;BME280;10510;47.942;9.442;2023-02-18T01:09:09;95609.59;;;8.41;100.00
11487;BME280;10510;47.942;9.442;2023-02-18T01:11:11;95609.72;;;8.40;100.00
11487;BME280;10510;47.942;9.442;2023-02-18T01:13:13;95603.78;;;8.38;100.00
11487;BME280;10510;47.942;9.442;2023-02-18T01:15:14;95606.56;;;8.36;100.00
11487;BME280;10510;47.942;9.442;2023-02-18T01:17:15;95597.94;;;8.36;100.00
11487;BME280;10510;47.942;9.442;2023-02-18T01:19:15;95591.06;;;8.35;100.00
11487;BME280;10510;47.942;9.442;2023-02-18T01:21:16;95577.38;;;8.33;100.00
11487;BME280;10510;47.942;9.442;2023-02-18T01:23:16;95584.22;;;8.34;100.00
11487;BME280;10510;47.942;9.442;2023-02-18T01:25:17;95578.88;;;8.35;100.00
11487;BME280;10510;47.942;9.442;2023-02-18T01:27:17;95589.31;;;8.35;100.00
11487;BME280;10510;47.942;9.442;2023-02-18T01:29:18;95587.63;;;8.34;100.00
11487;BME280;10510;47.942;9.442;2023-02-18T01:31:18;95591.91;;;8.35;100.00
11487;BME280;10510;47.942;9.442;2023-02-18T01:33:19;95593.66;;;8.35;100.00
11487;BME280;10510;47.942;9.442;2023-02-18T01:35:19;95587.63;;;8.34;100.00
11487;BME280;10510;47.942;9.442;2023-02-18T01:37:20;95586.81;;;8.34;100.00
11487;BME280;10510;47.942;9.442;2023-02-18T01:39:20;95587.63;;;8.34;100.00
11487;BME280;10510;47.942;9.442;2023-02-18T01:41:20;95573.00;;;8.33;100.00
11487;BME280;10510;47.942;9.442;2023-02-18T01:43:21;95566.97;;;8.33;100.00
11487;BME280;10510;47.942;9.442;2023-02-18T01:47:34;95583.53;;;8.32;100.00
11487;BME280;10510;47.942;9.442;2023-02-18T01:49:36;95577.53;;;8.31;100.00
11487;BME280;10510;47.942;9.442;2023-02-18T01:51:40;95573.41;;;8.29;100.00
11487;BME280;10510;47.942;9.442;2023-02-18T01:55:48;95571.28;;;8.24;100.00
11487;BME280;10510;47.942;9.442;2023-02-18T01:57:49;95567.97;;;8.22;100.00
11487;BME280;10510;47.942;9.442;2023-02-18T01:59:58;95568.28;;;8.19;100.00
11487;BME280;10510;47.942;9.442;2023-02-18T02:01:59;95564.03;;;8.18;100.00
11487;BME280;10510;47.942;9.442;2023-02-18T02:04:00;95564.16;;;8.16;100.00
11487;BME280;10510;47.942;9.442;2023-02-18T02:06:00;95561.56;;;8.16;100.00
11487;BME280;10510;47.942;9.442;2023-02-18T02:08:01;95556.34;;;8.16;100.00
11487;BME280;10510;47.942;9.442;2023-02-18T02:10:02;95561.72;;;8.15;100.00
11487;BME280;10510;47.942;9.442;2023-02-18T02:12:17;95569.53;;;8.15;100.00
11487;BME280;10510;47.942;9.442;2023-02-18T02:23:39;95538.19;;;8.07;100.00
11487;BME280;10510;47.942;9.442;2023-02-18T02:26:02;95533.81;;;8.07;100.00
11487;BME280;10510;47.942;9.442;2023-02-18T02:28:30;95540.94;;;8.05;100.00
11487;BME280;10510;47.942;9.442;2023-02-18T02:33:19;95523.81;;;8.03;100.00
11487;BME280;10510;47.942;9.442;2023-02-18T02:35:37;95525.59;;;8.02;100.00
11487;BME280;10510;47.942;9.442;2023-02-18T02:37:48;95534.22;;;8.03;100.00
11487;BME280;10510;47.942;9.442;2023-02-18T02:45:01;95542.34;;;8.00;100.00
11487;BME280;10510;47.942;9.442;2023-02-18T02:47:08;95542.50;;;7.98;100.00
11487;BME280;10510;47.942;9.442;2023-02-18T02:51:42;95534.28;;;7.93;100.00
11487;BME280;10510;47.942;9.442;2023-02-18T02:53:45;95532.66;;;7.92;100.00
11487;BME280;10510;47.942;9.442;2023-02-18T02:55:45;95531.84;;;7.91;100.00
11487;BME280;10510;47.942;9.442;2023-02-18T02:57:51;95526.94;;;7.88;100.00
11487;BME280;10510;47.942;9.442;2023-02-18T02:59:56;95517.47;;;7.87;100.00
11487;BME280;10510;47.942;9.442;2023-02-18T03:11:08;95512.78;;;7.91;100.00
11487;BME280;10510;47.942;9.442;2023-02-18T03:18:22;95512.50;;;7.94;100.00
11487;BME280;10510;47.942;9.442;2023-02-18T03:20:28;95510.72;;;7.94;100.00
11487;BME280;10510;47.942;9.442;2023-02-18T03:22:38;95514.97;;;7.95;100.00
11487;BME280;10510;47.942;9.442;2023-02-18T03:24:43;95516.47;;;7.98;100.00
11487;BME280;10510;47.942;9.442;2023-02-18T03:26:47;95516.31;;;8.00;100.00
11487;BME280;10510;47.942;9.442;2023-02-18T03:28:50;95512.59;;;8.02;100.00
11487;BME280;10510;47.942;9.442;2023-02-18T03:30:56;95517.50;;;8.05;100.00
11487;BME280;10510;47.942;9.442;2023-02-18T03:33:01;95513.78;;;8.08;100.00
11487;BME280;10510;47.942;9.442;2023-02-18T03:35:12;95506.78;;;8.08;100.00
11487;BME280;10510;47.942;9.442;2023-02-18T03:37:13;95532.84;;;8.08;100.00
11487;BME280;10510;47.942;9.442;2023-02-18T03:39:18;95525.84;;;8.09;100.00
11487;BME280;10510;47.942;9.442;2023-02-18T03:41:19;95533.66;;;8.09;100.00
11487;BME280;10510;47.942;9.442;2023-02-18T03:43:19;95518.88;;;8.09;100.00
11487;BME280;10510;47.942;9.442;2023-02-18T03:45:19;95515.41;;;8.09;100.00
11487;BME280;10510;47.942;9.442;2023-02-18T03:47:20;95514.59;;;8.08;100.00
11487;BME280;10510;47.942;9.442;2023-02-18T03:49:20;95511.06;;;8.09;100.00
11487;BME280;10510;47.942;9.442;2023-02-18T03:51:21;95495.44;;;8.09;100.00
11487;BME280;10510;47.942;9.442;2023-02-18T03:53:21;95502.28;;;8.10;100.00
11487;BME280;10510;47.942;9.442;2023-02-18T03:55:21;95510.06;;;8.10;100.00
11487;BME280;10510;47.942;9.442;2023-02-18T03:57:22;95517.88;;;8.10;100.00
11487;BME280;10510;47.942;9.442;2023-02-18T03:59:22;95509.25;;;8.10;100.00
11487;BME280;10510;47.942;9.442;2023-02-18T04:01:22;95506.66;;;8.10;100.00
11487;BME280;10510;47.942;9.442;2023-02-18T04:03:23;95506.66;;;8.10;100.00
11487;BME280;10510;47.942;9.442;2023-02-18T04:05:23;95502.28;;;8.10;100.00
11487;BME280;10510;47.942;9.442;2023-02-18T04:07:23;95504.06;;;8.10;100.00
11487;BME280;10510;47.942;9.442;2023-02-18T04:09:24;95495.44;;;8.09;100.00
11487;BME280;10510;47.942;9.442;2023-02-18T04:11:24;95500.78;;;8.08;100.00
11487;BME280;10510;47.942;9.442;2023-02-18T04:13:24;95505.16;;;8.07;100.00
11487;BME280;10510;47.942;9.442;2023-02-18T04:15:25;95508.59;;;8.08;100.00
11487;BME280;10510;47.942;9.442;2023-02-18T04:17:25;95507.47;;;8.10;100.00
11487;BME280;10510;47.942;9.442;2023-02-18T04:19:26;95513.50;;;8.11;100.00
11487;BME280;10510;47.942;9.442;2023-02-18T04:21:26;95509.09;;;8.11;100.00
11487;BME280;10510;47.942;9.442;2023-02-18T04:23:26;95504.75;;;8.12;100.00
11487;BME280;10510;47.942;9.442;2023-02-18T04:25:26;95503.09;;;8.11;100.00
11487;BME280;10510;47.942;9.442;2023-02-18T04:27:27;95508.28;;;8.11;100.00
11487;BME280;10510;47.942;9.442;2023-02-18T04:29:27;95494.47;;;8.10;100.00
11487;BME280;10510;47.942;9.442;2023-02-18T04:31:27;95494.47;;;8.10;100.00
11487;BME280;10510;47.942;9.442;2023-02-18T04:33:27;95500.63;;;8.09;100.00
11487;BME280;10510;47.942;9.442;2023-02-18T04:35:28;95495.44;;;8.09;100.00
11487;BME280;10510;47.942;9.442;2023-02-18T04:37:28;95489.38;;;8.09;100.00
11487;BME280;10510;47.942;9.442;2023-02-18T04:39:28;95483.38;;;8.08;100.00
11487;BME280;10510;47.942;9.442;2023-02-18T04:41:29;95475.84;;;8.05;100.00
11487;BME280;10510;47.942;9.442;2023-02-18T04:43:29;95475.19;;;8.03;100.00
11487;BME280;10510;47.942;9.442;2023-02-18T04:45:29;95472.88;;;8.00;100.00
11487;BME280;10510;47.942;9.442;2023-02-18T04:47:30;95474.66;;;8.00;100.00
11487;BME280;10510;47.942;9.442;2023-02-18T04:49:30;95477.41;;;7.98;100.00
11487;BME280;10510;47.942;9.442;2023-02-18T04:51:30;95476.22;;;7.92;100.00
11487;BME280;10510;47.942;9.442;2023-02-18T04:53:30;95487.44;;;7.93;100.00
11487;BME280;10510;47.942;9.442;2023-02-18T04:55:31;95484.84;;;7.93;100.00
11487;BME280;10510;47.942;9.442;2023-02-18T04:57:31;95480.75;;;7.90;100.00
11487;BME280;10510;47.942;9.442;2023-02-18T04:59:31;95480.22;;;7.87;100.00
11487;BME280;10510;47.942;9.442;2023-02-18T05:01:32;95488.31;;;7.84;100.00
11487;BME280;10510;47.942;9.442;2023-02-18T05:03:32;95487.63;;;7.82;100.00
11487;BME280;10510;47.942;9.442;2023-02-18T05:05:32;95477.38;;;7.80;100.00
11487;BME280;10510;47.942;9.442;2023-02-18T05:07:33;95474.78;;;7.80;100.00
11487;BME280;10510;47.942;9.442;2023-02-18T05:09:33;95476.56;;;7.80;100.00
11487;BME280;10510;47.942;9.442;2023-02-18T05:11:33;95468.75;;;7.80;100.00
11487;BME280;10510;47.942;9.442;2023-02-18T05:13:34;95476.41;;;7.81;100.00
11487;BME280;10510;47.942;9.442;2023-02-18T05:15:34;95479.81;;;7.82;100.00
11487;BME280;10510;47.942;9.442;2023-02-18T05:17:34;95479.81;;;7.82;100.00
11487;BME280;10510;47.942;9.442;2023-02-18T05:19:35;95479.19;;;7.80;100.00
11487;BME280;10510;47.942;9.442;2023-02-18T05:21:35;95480.13;;;7.79;100.00
11487;BME280;10510;47.942;9.442;2023-02-18T05:23:35;95474.09;;;7.78;100.00
11487;BME280;10510;47.942;9.442;2023-02-18T05:25:36;95479.59;;;7.75;100.00
11487;BME280;10510;47.942;9.442;2023-02-18T05:27:36;95479.75;;;7.73;100.00
11487;BME280;10510;47.942;9.442;2023-02-18T05:29:36;95463.31;;;7.73;100.00
11487;BME280;10510;47.942;9.442;2023-02-18T05:31:37;95464.97;;;7.74;100.00
11487;BME280;10510;47.942;9.442;2023-02-18T05:33:37;95463.84;;;7.77;100.00
11487;BME280;10510;47.942;9.442;2023-02-18T05:35:37;95465.47;;;7.78;100.00
11487;BME280;10510;47.942;9.442;2023-02-18T05:37:38;95470.69;;;7.78;100.00
11487;BME280;10510;47.942;9.442;2023-02-18T05:39:38;95476.03;;;7.76;100.00
11487;BME280;10510;47.942;9.442;2023-02-18T05:41:39;95462.88;;;7.78;100.00
11487;BME280;10510;47.942;9.442;2023-02-18T05:43:39;95470.22;;;7.82;100.00
11487;BME280;10510;47.942;9.442;2023-02-18T05:45:57;95464.59;;;7.87;100.00
11487;BME280;10510;47.942;9.442;2023-02-18T05:47:58;95463.34;;;7.91;100.00
11487;BME280;10510;47.942;9.442;2023-02-18T05:49:58;95460.72;;;7.91;100.00
11487;BME280;10510;47.942;9.442;2023-02-18T05:51:58;95464.19;;;7.91;100.00
11487;BME280;10510;47.942;9.442;2023-02-18T05:53:59;95466.47;;;7.94;100.00
11487;BME280;10510;47.942;9.442;2023-02-18T05:55:59;95464.81;;;7.93;100.00
11487;BME280;10510;47.942;9.442;2023-02-18T05:57:59;95462.91;;;7.95;100.00
11487;BME280;10510;47.942;9.442;2023-02-18T06:00:00;95464.69;;;7.95;100.00
11487;BME280;10510;47.942;9.442;2023-02-18T06:02:00;95472.50;;;7.95;100.00
11487;BME280;10510;47.942;9.442;2023-02-18T06:04:00;95469.91;;;7.95;100.00
11487;BME280;10510;47.942;9.442;2023-02-18T06:06:01;95463.59;;;7.97;100.00
11487;BME280;10510;47.942;9.442;2023-02-18T06:08:01;95461.63;;;8.00;100.00
11487;BME280;10510;47.942;9.442;2023-02-18T06:10:02;95459.88;;;8.00;100.00
11487;BME280;10510;47.942;9.442;2023-02-18T06:12:03;95467.69;;;8.00;100.00
11487;BME280;10510;47.942;9.442;2023-02-18T06:14:03;95465.09;;;8.00;100.00
11487;BME280;10510;47.942;9.442;2023-02-18T06:16:04;95463.41;;;7.99;100.00
11487;BME280;10510;47.942;9.442;2023-02-18T06:18:05;95472.88;;;8.00;100.00
11487;BME280;10510;47.942;9.442;2023-02-18T06:20:06;95474.50;;;8.01;100.00
11487;BME280;10510;47.942;9.442;2023-02-18T06:22:06;95464.78;;;8.03;100.00
11487;BME280;10510;47.942;9.442;2023-02-18T06:24:07;95467.38;;;8.03;100.00
11487;BME280;10510;47.942;9.442;2023-02-18T06:26:07;95464.63;;;8.05;100.00
11487;BME280;10510;47.942;9.442;2023-02-18T06:28:08;95459.28;;;8.06;100.00
11487;BME280;10510;47.942;9.442;2023-02-18T06:30:08;95462.03;;;8.05;100.00
11487;BME280;10510;47.942;9.442;2023-02-18T06:32:09;95458.59;;;8.04;100.00
11487;BME280;10510;47.942;9.442;2023-02-18T06:34:09;95456.00;;;8.04;100.00
11487;BME280;10510;47.942;9.442;2023-02-18T06:36:10;95462.03;;;8.05;100.00
11487;BME280;10510;47.942;9.442;2023-02-18T06:38:11;95464.78;;;8.03;100.00
11487;BME280;10510;47.942;9.442;2023-02-18T06:40:11;95466.41;;;8.04;100.00
11487;BME280;10510;47.942;9.442;2023-02-18T06:42:11;95461.19;;;8.04;100.00
11487;BME280;10510;47.942;9.442;2023-02-18T06:44:12;95469.00;;;8.04;100.00
11487;BME280;10510;47.942;9.442;2023-02-18T06:46:14;95462.84;;;8.05;100.00
11487;BME280;10510;47.942;9.442;2023-02-18T06:48:14;95460.91;;;8.07;100.00
11487;BME280;10510;47.942;9.442;2023-02-18T06:50:19;95469.41;;;8.09;100.00
11487;BME280;10510;47.942;9.442;2023-02-18T06:52:19;95470.06;;;8.11;100.00
11487;BME280;10510;47.942;9.442;2023-02-18T06:54:19;95471.72;;;8.12;100.00
11487;BME280;10510;47.942;9.442;2023-02-18T06:56:20;95462.91;;;8.13;100.00
11487;BME280;10510;47.942;9.442;2023-02-18T06:58:20;95473.19;;;8.15;100.00
11487;BME280;10510;47.942;9.442;2023-02-18T07:00:22;95468.63;;;8.17;100.00
11487;BME280;10510;47.942;9.442;2023-02-18T07:02:22;95472.06;;;8.17;100.00
11487;BME280;10510;47.942;9.442;2023-02-18T07:04:22;95472.91;;;8.18;100.00
11487;BME280;10510;47.942;9.442;2023-02-18T07:06:23;95465.75;;;8.20;100.00
11487;BME280;10510;47.942;9.442;2023-02-18T07:08:23;95465.44;;;8.23;100.00
11487;BME280;10510;47.942;9.442;2023-02-18T07:10:23;95463.69;;;8.24;100.00
11487;BME280;10510;47.942;9.442;2023-02-18T07:12:24;95463.38;;;8.27;100.00
11487;BME280;10510;47.942;9.442;2023-02-18T07:14:24;95465.00;;;8.28;100.00
11487;BME280;10510;47.942;9.442;2023-02-18T07:16:25;95463.09;;;8.30;100.00
11487;BME280;10510;47.942;9.442;2023-02-18T07:18:25;95480.16;;;8.32;100.00
11487;BME280;10510;47.942;9.442;2023-02-18T07:20:26;95464.09;;;8.37;100.00
11487;BME280;10510;47.942;9.442;2023-02-18T07:22:26;95469.06;;;8.40;100.00
11487;BME280;10510;47.942;9.442;2023-02-18T07:24:26;95460.94;;;8.43;100.00
11487;BME280;10510;47.942;9.442;2023-02-18T07:26:27;95458.84;;;8.47;100.00
11487;BME280;10510;47.942;9.442;2023-02-18T07:28:27;95455.13;;;8.49;100.00
11487;BME280;10510;47.942;9.442;2023-02-18T07:30:27;95460.84;;;8.53;100.00
11487;BME280;10510;47.942;9.442;2023-02-18T07:32:27;95469.19;;;8.56;100.00
11487;BME280;10510;47.942;9.442;2023-02-18T07:34:28;95471.50;;;8.59;100.00
11487;BME280;10510;47.942;9.442;2023-02-18T07:36:28;95476.41;;;8.62;100.00
11487;BME280;10510;47.942;9.442;2023-02-18T07:38:29;95473.50;;;8.66;100.00
11487;BME280;10510;47.942;9.442;2023-02-18T07:40:29;95463.59;;;8.69;100.00
11487;BME280;10510;47.942;9.442;2023-02-18T07:42:29;95472.91;;;8.72;100.00
11487;BME280;10510;47.942;9.442;2023-02-18T07:44:30;95470.97;;;8.74;100.00
11487;BME280;10510;47.942;9.442;2023-02-18T07:46:31;95475.19;;;8.75;100.00
11487;BME280;10510;47.942;9.442;2023-02-18T07:48:31;95471.63;;;8.76;100.00
11487;BME280;10510;47.942;9.442;2023-02-18T07:50:32;95474.09;;;8.77;100.00
11487;BME280;10510;47.942;9.442;2023-02-18T07:52:34;95475.03;;;8.76;100.00
11487;BME280;10510;47.942;9.442;2023-02-18T07:54:34;95479.44;;;8.76;100.00
11487;BME280;10510;47.942;9.442;2023-02-18T07:56:35;95485.31;;;8.78;100.00
11487;BME280;10510;47.942;9.442;2023-02-18T07:58:37;95479.00;;;8.80;100.00
11487;BME280;10510;47.942;9.442;2023-02-18T08:00:37;95475.41;;;8.81;100.00
11487;BME280;10510;47.942;9.442;2023-02-18T08:02:37;95490.91;;;8.83;100.00
11487;BME280;10510;47.942;9.442;2023-02-18T08:04:38;95489.94;;;8.84;100.00
11487;BME280;10510;47.942;9.442;2023-02-18T08:06:40;95493.22;;;8.86;100.00
11487;BME280;10510;47.942;9.442;2023-02-18T08:08:41;95488.81;;;8.86;100.00
11487;BME280;10510;47.942;9.442;2023-02-18T08:10:42;95485.09;;;8.89;100.00
11487;BME280;10510;47.942;9.442;2023-02-18T08:12:43;95490.94;;;8.91;100.00
11487;BME280;10510;47.942;9.442;2023-02-18T08:14:43;95489.69;;;8.95;100.00
11487;BME280;10510;47.942;9.442;2023-02-18T08:16:43;95488.41;;;8.99;100.00
11487;BME280;10510;47.942;9.442;2023-02-18T08:18:44;95483.69;;;9.03;100.00
11487;BME280;10510;47.942;9.442;2023-02-18T08:20:45;95490.25;;;9.07;100.00
11487;BME280;10510;47.942;9.442;2023-02-18T08:22:48;95480.31;;;9.10;100.00
11487;BME280;10510;47.942;9.442;2023-02-18T08:24:49;95485.41;;;9.12;100.00
11487;BME280;10510;47.942;9.442;2023-02-18T08:26:49;95477.28;;;9.15;100.00
11487;BME280;10510;47.942;9.442;2023-02-18T08:28:49;95486.59;;;9.18;100.00
11487;BME280;10510;47.942;9.442;2023-02-18T08:30:52;95484.47;;;9.21;100.00
11487;BME280;10510;47.942;9.442;2023-02-18T08:32:53;95479.09;;;9.23;100.00
11487;BME280;10510;47.942;9.442;2023-02-18T08:34:53;95471.94;;;9.25;100.00
11487;BME280;10510;47.942;9.442;2023-02-18T08:36:53;95471.63;;;9.28;100.00
11487;BME280;10510;47.942;9.442;2023-02-18T08:38:53;95470.50;;;9.30;100.00
11487;BME280;10510;47.942;9.442;2023-02-18T08:41:05;95474.91;;;9.30;100.00
11487;BME280;10510;47.942;9.442;2023-02-18T08:43:06;95471.50;;;9.29;100.00
11487;BME280;10510;47.942;9.442;2023-02-18T08:45:06;95470.50;;;9.30;100.00
11487;BME280;10510;47.942;9.442;2023-02-18T08:47:07;95472.94;;;9.32;100.00
11487;BME280;10510;47.942;9.442;2023-02-18T08:49:07;95456.97;;;9.35;100.00
11487;BME280;10510;47.942;9.442;2023-02-18T08:51:18;95460.25;;;9.37;100.00
11487;BME280;10510;47.942;9.442;2023-02-18T08:53:19;95448.69;;;9.40;100.00
11487;BME280;10510;47.942;9.442;2023-02-18T08:55:19;95452.78;;;9.42;100.00
11487;BME280;10510;47.942;9.442;2023-02-18T08:57:20;95461.94;;;9.46;100.00
11487;BME280;10510;47.942;9.442;2023-02-18T08:59:20;95458.38;;;9.47;100.00
11487;BME280;10510;47.942;9.442;2023-02-18T09:01:21;95460.66;;;9.50;100.00
11487;BME280;10510;47.942;9.442;2023-02-18T09:03:21;95462.78;;;9.55;100.00
11487;BME280;10510;47.942;9.442;2023-02-18T09:05:21;95459.72;;;9.60;100.00
11487;BME280;10510;47.942;9.442;2023-02-18T09:07:22;95467.59;;;9.68;100.00
11487;BME280;10510;47.942;9.442;2023-02-18T09:09:22;95466.94;;;9.74;100.00
11487;BME280;10510;47.942;9.442;2023-02-18T09:11:22;95470.88;;;9.78;100.00
11487;BME280;10510;47.942;9.442;2023-02-18T09:13:23;95459.44;;;9.79;100.00
11487;BME280;10510;47.942;9.442;2023-02-18T09:15:23;95455.06;;;9.80;100.00
11487;BME280;10510;47.942;9.442;2023-02-18T09:17:24;95459.44;;;9.79;100.00
11487;BME280;10510;47.942;9.442;2023-02-18T09:19:24;95461.25;;;9.78;100.00
11487;BME280;10510;47.942;9.442;2023-02-18T09:21:25;95452.44;;;9.80;100.00
11487;BME280;10510;47.942;9.442;2023-02-18T09:23:28;95447.88;;;9.82;100.00
11487;BME280;10510;47.942;9.442;2023-02-18T09:25:28;95450.34;;;9.83;100.00
11487;BME280;10510;47.942;9.442;2023-02-18T09:27:29;95453.28;;;9.88;100.00
11487;BME280;10510;47.942;9.442;2023-02-18T09:29:29;95454.59;;;9.92;100.00
11487;BME280;10510;47.942;9.442;2023-02-18T09:31:29;95448.25;;;9.95;100.00
11487;BME280;10510;47.942;9.442;2023-02-18T09:33:29;95445.13;;;9.99;100.00
11487;BME280;10510;47.942;9.442;2023-02-18T09:35:30;95449.22;;;10.02;100.00
11487;BME280;10510;47.942;9.442;2023-02-18T09:37:30;95449.22;;;10.02;100.00
11487;BME280;10510;47.942;9.442;2023-02-18T09:39:31;95435.81;;;9.97;100.00
11487;BME280;10510;47.942;9.442;2023-02-18T09:41:37;95438.28;;;9.90;100.00
11487;BME280;10510;47.942;9.442;2023-02-18T09:43:45;95441.19;;;9.87;100.00
11487;BME280;10510;47.942;9.442;2023-02-18T09:45:47;95438.41;;;9.81;100.00
11487;BME280;10510;47.942;9.442;2023-02-18T09:47:49;95437.56;;;9.72;100.00
11487;BME280;10510;47.942;9.442;2023-02-18T09:49:53;95436.91;;;9.70;100.00
11487;BME280;10510;47.942;9.442;2023-02-18T09:51:56;95441.16;;;9.71;100.00
11487;BME280;10510;47.942;9.442;2023-02-18T09:53:59;95427.59;;;9.67;100.00
11487;BME280;10510;47.942;9.442;2023-02-18T09:55:59;95430.38;;;9.66;100.00
11487;BME280;10510;47.942;9.442;2023-02-18T09:58:04;95434.13;;;9.63;100.00
11487;BME280;10510;47.942;9.442;2023-02-18T10:00:12;95425.47;;;9.63;100.00
11487;BME280;10510;47.942;9.442;2023-02-18T10:02:13;95425.63;;;9.61;100.00
11487;BME280;10510;47.942;9.442;2023-02-18T10:06:31;95435.44;;;9.67;100.00
11487;BME280;10510;47.942;9.442;2023-02-18T10:08:34;95430.88;;;9.69;100.00
11487;BME280;10510;47.942;9.442;2023-02-18T10:10:42;95421.09;;;9.71;100.00
11487;BME280;10510;47.942;9.442;2023-02-18T10:12:43;95428.28;;;9.77;100.00
11487;BME280;10510;47.942;9.442;2023-02-18T10:14:51;95423.56;;;9.81;100.00
11487;BME280;10510;47.942;9.442;2023-02-18T10:16:52;95422.25;;;9.85;100.00
11487;BME280;10510;47.942;9.442;2023-02-18T10:18:58;95422.25;;;9.85;100.00
11487;BME280;10510;47.942;9.442;2023-02-18T10:21:11;95423.28;;;9.92;100.00
11487;BME280;10510;47.942;9.442;2023-02-18T10:23:14;95416.59;;;9.98;100.00
11487;BME280;10510;47.942;9.442;2023-02-18T10:25:18;95412.19;;;9.98;100.00
11487;BME280;10510;47.942;9.442;2023-02-18T10:29:24;95414.16;;;10.05;100.00
11487;BME280;10510;47.942;9.442;2023-02-18T10:31:33;95408.78;;;10.06;100.00
11487;BME280;10510;47.942;9.442;2023-02-18T10:33:35;95419.84;;;10.08;100.00
11487;BME280;10510;47.942;9.442;2023-02-18T10:35:50;95400.13;;;10.14;100.00
11487;BME280;10510;47.942;9.442;2023-02-18T10:38:11;95405.81;;;10.17;100.00
11487;BME280;10510;47.942;9.442;2023-02-18T10:50:00;95396.25;;;10.34;100.00
11487;BME280;10510;47.942;9.442;2023-02-18T10:52:04;95397.72;;;10.37;100.00
11487;BME280;10510;47.942;9.442;2023-02-18T10:54:05;95386.78;;;10.33;100.00
11487;BME280;10510;47.942;9.442;2023-02-18T10:56:07;95379.91;;;10.32;100.00
11487;BME280;10510;47.942;9.442;2023-02-18T11:00:27;95382.22;;;10.27;100.00
11487;BME280;10510;47.942;9.442;2023-02-18T11:02:33;95383.84;;;10.28;100.00
11487;BME280;10510;47.942;9.442;2023-02-18T11:04:36;95376.97;;;10.27;100.00
11487;BME280;10510;47.942;9.442;2023-02-18T11:06:50;95370.78;;;10.28;100.00
11487;BME280;10510;47.942;9.442;2023-02-18T11:08:52;95369.44;;;10.32;100.00
11487;BME280;10510;47.942;9.442;2023-02-18T11:10:54;95372.72;;;10.34;100.00
11487;BME280;10510;47.942;9.442;2023-02-18T11:12:59;95357.72;;;10.36;100.00
11487;BME280;10510;47.942;9.442;2023-02-18T11:15:15;95357.88;;;10.43;100.00
11487;BME280;10510;47.942;9.442;2023-02-18T11:17:18;95354.91;;;10.46;100.00
11487;BME280;10510;47.942;9.442;2023-02-18T11:19:38;95364.88;;;10.51;100.00
11487;BME280;10510;47.942;9.442;2023-02-18T11:21:38;95364.72;;;10.60;100.00
11487;BME280;10510;47.942;9.442;2023-02-18T11:24:08;95358.00;;;10.66;100.00
11487;BME280;10510;47.942;9.442;2023-02-18T11:26:12;95349.16;;;10.75;100.00
11487;BME280;10510;47.942;9.442;2023-02-18T11:30:24;95355.63;;;11.04;100.00
11487;BME280;10510;47.942;9.442;2023-02-18T11:32:27;95370.31;;;11.13;100.00
11487;BME280;10510;47.942;9.442;2023-02-18T11:34:30;95369.78;;;11.18;100.00
11487;BME280;10510;47.942;9.442;2023-02-18T11:36:34;95361.78;;;11.19;100.00
11487;BME280;10510;47.942;9.442;2023-02-18T11:38:37;95350.13;;;11.30;100.00
11487;BME280;10510;47.942;9.442;2023-02-18T11:40:40;95347.63;;;11.45;100.00
11487;BME280;10510;47.942;9.442;2023-02-18T11:42:41;95367.16;;;11.65;100.00